首页
METAR-TAF:

METAR-TAF

机场 :

Hope, 不列颠哥伦比亚, 加拿大

纬度: 49-22N, 经度: 121-29W, 海拔: 39米

当前天气观测

该预报发布于50分钟前的08:00 UTC
风速7节,风向,在东北东南之间变化
温度 3°C
湿度 70%
气压 1015 hPa
能見度: 14.5公里
阴天层高于7000英尺

METAR: CYHE 170800Z AUTO 09007KT 050V130 9SM OVC070 03/M02 A2997 RMK SLP153

时间: 00:50 (08:50 UTC)


TAF: 丢失

超过4000个机场的气象观测和天气预报(METAR&TAF报告)。

可查询的气象台以黄色和红色小点在地图上表示。

将鼠标移到小点上方,可查看气象台名称。

然后点击查看天气观测和预报。

如需切换地图:点击带黑十字的绿色按钮放大地图;点击带横线的绿色按钮缩小地图;或者点击绿色箭头查看邻近地区的地图。


METAR-TAF: